Pagrindinis puslapis
METAR-TAF:

METAR-TAF

Oro uostai :

Bangis, Centrinės Afrikos Respublika

platuma: 04-24N, ilguma: 018-31E, Aukštis: 365 m

Dabartinis oras

Ataskaita buvo paskelbta 1 valandą ir 18 minutes, ne 04:00 UTC
Vėjas 3 kt iš Šiaurės/Šiaurės Vakarų
Temperatūra 22°C
Drėgmė 100%
Slėgis 1010 hPa
Matomumas: 7000 m

METAR: FEFF 060400Z 33003KT 7000 NSC 22/22 Q1010 NOSIG

Laikas: 06:18 (05:18 UTC)

Prognozė

Ataskaita buvo paskelbta 6 valandos ir 18 minutes, ne 23:00 UTC
Prognozė galioja nuo 06 metu 00 UTC su 07 metu 06 UTC
Vėjas kt iš Šiaurės
Matomumas: 8000 m
Tapsmas
nuo 06 metu 03 UTC su 06 metu 05 UTC
Matomumas: 2000 m
Su prošvaistėmis ne aukštis 300 ft
rūkana
Nuo 06 metu 0800 UTC
Vėjas 6 kt iš Rytų/Šiaurės Rytų
Matomumas 10 km arba daugiau
Mažai debesys ne aukštis 1600 ft

TAF: FEFF 052300Z 0600/0706 00000KT 8000 NSC BECMG 0603/0605 2000 BR BKN003 FM060800 07006KT 9999 FEW016

Orai ataskaitas ir orų prognozės (METAR, TAF).

turimą stotys yra geltonos ir raudonos taškus žemėlapyje.

Perkelti pele per norėdami pamatyti stoties vardą.

Tada spustelėkite, norėdami matyti oro stebėjimo ir prognozės.

Norėdami pakeisti žemėlapį: spustelėkite ant žalios mygtukų su juodo kryžiaus žemyn,; žalią mygtuką su brūkšneliu, jei norite nutolinti; arba žalių rodyklių gretimoms žemėlapius.


METAR-TAF: